sensor_id;sensor_type;location;lat;lon;timestamp;P1;durP1;ratioP1;P2;durP2;ratioP2
46355;SDS011;32066;49.474;11.106;2024-01-15T00:00:05;54.40;;;24.17;;
46355;SDS011;32066;49.474;11.106;2024-01-15T00:02:40;55.88;;;23.33;;
46355;SDS011;32066;49.474;11.106;2024-01-15T00:05:09;53.15;;;22.08;;
46355;SDS011;32066;49.474;11.106;2024-01-15T00:07:38;53.42;;;22.13;;
46355;SDS011;32066;49.474;11.106;2024-01-15T00:10:07;50.53;;;21.75;;
46355;SDS011;32066;49.474;11.106;2024-01-15T00:12:35;54.70;;;23.15;;
46355;SDS011;32066;49.474;11.106;2024-01-15T00:15:05;54.45;;;22.85;;
46355;SDS011;32066;49.474;11.106;2024-01-15T00:17:34;57.10;;;23.52;;
46355;SDS011;32066;49.474;11.106;2024-01-15T00:20:06;51.95;;;22.52;;
46355;SDS011;32066;49.474;11.106;2024-01-15T00:22:35;55.13;;;22.80;;
46355;SDS011;32066;49.474;11.106;2024-01-15T00:25:04;52.53;;;22.55;;
46355;SDS011;32066;49.474;11.106;2024-01-15T00:27:33;53.15;;;21.98;;
46355;SDS011;32066;49.474;11.106;2024-01-15T00:30:02;51.47;;;21.52;;
46355;SDS011;32066;49.474;11.106;2024-01-15T00:32:31;49.22;;;21.08;;
46355;SDS011;32066;49.474;11.106;2024-01-15T00:35:00;55.05;;;21.90;;
46355;SDS011;32066;49.474;11.106;2024-01-15T00:37:31;52.38;;;21.35;;
46355;SDS011;32066;49.474;11.106;2024-01-15T00:40:00;51.00;;;20.35;;
46355;SDS011;32066;49.474;11.106;2024-01-15T00:42:29;50.33;;;21.63;;
46355;SDS011;32066;49.474;11.106;2024-01-15T00:44:57;50.40;;;21.65;;
46355;SDS011;32066;49.474;11.106;2024-01-15T00:47:26;51.22;;;22.40;;
46355;SDS011;32066;49.474;11.106;2024-01-15T00:49:54;54.05;;;22.95;;
46355;SDS011;32066;49.474;11.106;2024-01-15T00:52:23;44.22;;;19.95;;
46355;SDS011;32066;49.474;11.106;2024-01-15T00:54:54;48.95;;;20.98;;
46355;SDS011;32066;49.474;11.106;2024-01-15T00:57:23;51.08;;;22.23;;
46355;SDS011;32066;49.474;11.106;2024-01-15T00:59:51;51.92;;;22.52;;
46355;SDS011;32066;49.474;11.106;2024-01-15T01:02:20;50.03;;;22.08;;
46355;SDS011;32066;49.474;11.106;2024-01-15T01:04:49;49.35;;;20.95;;
46355;SDS011;32066;49.474;11.106;2024-01-15T01:07:17;56.33;;;23.52;;
46355;SDS011;32066;49.474;11.106;2024-01-15T01:09:46;51.85;;;21.60;;
46355;SDS011;32066;49.474;11.106;2024-01-15T01:12:19;47.67;;;21.17;;
46355;SDS011;32066;49.474;11.106;2024-01-15T01:14:47;49.70;;;21.33;;
46355;SDS011;32066;49.474;11.106;2024-01-15T01:17:16;49.45;;;20.70;;
46355;SDS011;32066;49.474;11.106;2024-01-15T01:19:44;50.17;;;22.02;;
46355;SDS011;32066;49.474;11.106;2024-01-15T01:22:13;49.40;;;20.10;;
46355;SDS011;32066;49.474;11.106;2024-01-15T01:24:42;48.05;;;21.30;;
46355;SDS011;32066;49.474;11.106;2024-01-15T01:27:10;49.63;;;20.70;;
46355;SDS011;32066;49.474;11.106;2024-01-15T01:29:42;47.65;;;21.13;;
46355;SDS011;32066;49.474;11.106;2024-01-15T01:32:10;50.50;;;21.20;;
46355;SDS011;32066;49.474;11.106;2024-01-15T01:34:39;48.35;;;19.83;;
46355;SDS011;32066;49.474;11.106;2024-01-15T01:37:09;51.13;;;22.05;;
46355;SDS011;32066;49.474;11.106;2024-01-15T01:39:39;45.83;;;20.13;;
46355;SDS011;32066;49.474;11.106;2024-01-15T01:42:08;50.00;;;21.55;;
46355;SDS011;32066;49.474;11.106;2024-01-15T01:44:37;45.15;;;20.48;;
46355;SDS011;32066;49.474;11.106;2024-01-15T01:47:08;48.75;;;20.38;;
46355;SDS011;32066;49.474;11.106;2024-01-15T01:49:37;54.45;;;21.95;;
46355;SDS011;32066;49.474;11.106;2024-01-15T01:52:06;50.03;;;21.27;;
46355;SDS011;32066;49.474;11.106;2024-01-15T01:54:34;48.88;;;20.40;;
46355;SDS011;32066;49.474;11.106;2024-01-15T01:57:04;44.42;;;19.35;;
46355;SDS011;32066;49.474;11.106;2024-01-15T01:59:35;47.00;;;20.30;;
46355;SDS011;32066;49.474;11.106;2024-01-15T02:02:04;51.83;;;20.02;;
46355;SDS011;32066;49.474;11.106;2024-01-15T02:04:36;48.90;;;21.17;;
46355;SDS011;32066;49.474;11.106;2024-01-15T02:07:05;49.70;;;21.55;;
46355;SDS011;32066;49.474;11.106;2024-01-15T02:09:35;48.00;;;20.88;;
46355;SDS011;32066;49.474;11.106;2024-01-15T02:12:04;49.88;;;20.05;;
46355;SDS011;32066;49.474;11.106;2024-01-15T02:14:34;48.90;;;19.27;;
46355;SDS011;32066;49.474;11.106;2024-01-15T02:17:03;44.83;;;19.67;;
46355;SDS011;32066;49.474;11.106;2024-01-15T02:19:34;56.05;;;22.55;;
46355;SDS011;32066;49.474;11.106;2024-01-15T02:22:04;48.15;;;20.05;;
46355;SDS011;32066;49.474;11.106;2024-01-15T02:24:35;44.55;;;19.40;;
46355;SDS011;32066;49.474;11.106;2024-01-15T02:27:04;49.30;;;20.20;;
46355;SDS011;32066;49.474;11.106;2024-01-15T02:29:33;43.40;;;19.30;;
46355;SDS011;32066;49.474;11.106;2024-01-15T02:32:04;46.60;;;19.60;;
46355;SDS011;32066;49.474;11.106;2024-01-15T02:34:33;45.95;;;19.35;;
46355;SDS011;32066;49.474;11.106;2024-01-15T02:37:01;41.78;;;19.27;;
46355;SDS011;32066;49.474;11.106;2024-01-15T02:39:30;41.05;;;17.88;;
46355;SDS011;32066;49.474;11.106;2024-01-15T02:42:01;45.78;;;18.52;;
46355;SDS011;32066;49.474;11.106;2024-01-15T02:44:30;41.15;;;18.48;;
46355;SDS011;32066;49.474;11.106;2024-01-15T02:46:59;39.33;;;17.30;;
46355;SDS011;32066;49.474;11.106;2024-01-15T02:49:28;41.40;;;18.50;;
46355;SDS011;32066;49.474;11.106;2024-01-15T02:51:57;41.38;;;18.83;;
46355;SDS011;32066;49.474;11.106;2024-01-15T02:54:26;41.40;;;17.60;;
46355;SDS011;32066;49.474;11.106;2024-01-15T02:56:55;41.00;;;16.35;;
46355;SDS011;32066;49.474;11.106;2024-01-15T02:59:26;41.10;;;17.42;;
46355;SDS011;32066;49.474;11.106;2024-01-15T03:01:55;40.22;;;16.92;;
46355;SDS011;32066;49.474;11.106;2024-01-15T03:04:24;39.45;;;17.00;;
46355;SDS011;32066;49.474;11.106;2024-01-15T03:06:53;41.88;;;18.20;;
46355;SDS011;32066;49.474;11.106;2024-01-15T03:09:21;37.65;;;16.00;;
46355;SDS011;32066;49.474;11.106;2024-01-15T03:11:50;36.80;;;16.55;;
46355;SDS011;32066;49.474;11.106;2024-01-15T03:14:19;41.22;;;16.80;;
46355;SDS011;32066;49.474;11.106;2024-01-15T03:16:52;36.63;;;16.90;;
46355;SDS011;32066;49.474;11.106;2024-01-15T03:19:21;38.97;;;16.58;;
46355;SDS011;32066;49.474;11.106;2024-01-15T03:21:49;35.78;;;15.68;;
46355;SDS011;32066;49.474;11.106;2024-01-15T03:24:18;38.08;;;16.83;;
46355;SDS011;32066;49.474;11.106;2024-01-15T03:26:47;36.35;;;16.02;;
46355;SDS011;32066;49.474;11.106;2024-01-15T03:29:15;34.47;;;15.15;;
46355;SDS011;32066;49.474;11.106;2024-01-15T03:31:44;33.83;;;14.70;;
46355;SDS011;32066;49.474;11.106;2024-01-15T03:34:15;32.88;;;15.77;;
46355;SDS011;32066;49.474;11.106;2024-01-15T03:36:44;34.78;;;14.48;;
46355;SDS011;32066;49.474;11.106;2024-01-15T03:39:13;31.55;;;14.95;;
46355;SDS011;32066;49.474;11.106;2024-01-15T03:41:41;33.28;;;14.77;;
46355;SDS011;32066;49.474;11.106;2024-01-15T03:44:10;32.90;;;14.55;;
46355;SDS011;32066;49.474;11.106;2024-01-15T03:46:38;32.20;;;13.23;;
46355;SDS011;32066;49.474;11.106;2024-01-15T03:49:07;34.05;;;15.02;;
46355;SDS011;32066;49.474;11.106;2024-01-15T03:51:38;31.02;;;13.63;;
46355;SDS011;32066;49.474;11.106;2024-01-15T03:54:07;33.50;;;14.95;;
46355;SDS011;32066;49.474;11.106;2024-01-15T03:56:35;33.63;;;14.40;;
46355;SDS011;32066;49.474;11.106;2024-01-15T03:59:04;28.40;;;13.32;;
46355;SDS011;32066;49.474;11.106;2024-01-15T04:01:33;33.80;;;15.63;;
46355;SDS011;32066;49.474;11.106;2024-01-15T04:04:01;29.52;;;13.52;;
46355;SDS011;32066;49.474;11.106;2024-01-15T04:06:30;31.65;;;14.50;;
46355;SDS011;32066;49.474;11.106;2024-01-15T04:09:01;31.45;;;13.82;;
46355;SDS011;32066;49.474;11.106;2024-01-15T04:11:30;29.35;;;13.18;;
46355;SDS011;32066;49.474;11.106;2024-01-15T04:13:59;32.40;;;13.18;;
46355;SDS011;32066;49.474;11.106;2024-01-15T04:16:27;29.27;;;13.75;;
46355;SDS011;32066;49.474;11.106;2024-01-15T04:18:56;26.73;;;12.90;;
46355;SDS011;32066;49.474;11.106;2024-01-15T04:21:24;28.40;;;12.98;;
46355;SDS011;32066;49.474;11.106;2024-01-15T04:23:53;31.73;;;13.18;;
46355;SDS011;32066;49.474;11.106;2024-01-15T04:26:24;29.27;;;12.90;;
46355;SDS011;32066;49.474;11.106;2024-01-15T04:28:53;28.85;;;12.93;;
46355;SDS011;32066;49.474;11.106;2024-01-15T04:31:22;27.33;;;12.65;;
46355;SDS011;32066;49.474;11.106;2024-01-15T04:33:52;30.75;;;13.65;;
46355;SDS011;32066;49.474;11.106;2024-01-15T04:36:20;28.75;;;13.55;;
46355;SDS011;32066;49.474;11.106;2024-01-15T04:38:49;28.55;;;13.32;;
46355;SDS011;32066;49.474;11.106;2024-01-15T04:41:18;30.02;;;14.20;;
46355;SDS011;32066;49.474;11.106;2024-01-15T04:43:49;28.40;;;12.35;;
46355;SDS011;32066;49.474;11.106;2024-01-15T04:46:18;29.05;;;12.32;;
46355;SDS011;32066;49.474;11.106;2024-01-15T04:48:46;27.10;;;13.15;;
46355;SDS011;32066;49.474;11.106;2024-01-15T04:51:15;29.27;;;12.48;;
46355;SDS011;32066;49.474;11.106;2024-01-15T04:53:44;28.65;;;12.50;;
46355;SDS011;32066;49.474;11.106;2024-01-15T04:56:12;28.15;;;12.63;;
46355;SDS011;32066;49.474;11.106;2024-01-15T04:58:42;30.17;;;13.30;;
46355;SDS011;32066;49.474;11.106;2024-01-15T05:01:13;29.98;;;13.40;;
46355;SDS011;32066;49.474;11.106;2024-01-15T05:03:43;28.88;;;13.10;;
46355;SDS011;32066;49.474;11.106;2024-01-15T05:06:12;31.08;;;12.85;;
46355;SDS011;32066;49.474;11.106;2024-01-15T05:08:41;30.08;;;13.18;;
46355;SDS011;32066;49.474;11.106;2024-01-15T05:11:09;30.25;;;13.00;;
46355;SDS011;32066;49.474;11.106;2024-01-15T05:13:38;28.45;;;12.65;;
46355;SDS011;32066;49.474;11.106;2024-01-15T05:16:07;27.02;;;13.27;;
46355;SDS011;32066;49.474;11.106;2024-01-15T05:18:38;29.52;;;12.95;;
46355;SDS011;32066;49.474;11.106;2024-01-15T05:21:08;27.73;;;12.45;;
46355;SDS011;32066;49.474;11.106;2024-01-15T05:23:37;29.17;;;12.48;;
46355;SDS011;32066;49.474;11.106;2024-01-15T05:26:06;28.50;;;13.25;;
46355;SDS011;32066;49.474;11.106;2024-01-15T05:28:35;29.00;;;12.70;;
46355;SDS011;32066;49.474;11.106;2024-01-15T05:31:03;31.42;;;13.45;;
46355;SDS011;32066;49.474;11.106;2024-01-15T05:33:32;32.75;;;13.65;;
46355;SDS011;32066;49.474;11.106;2024-01-15T05:36:03;27.30;;;13.63;;
46355;SDS011;32066;49.474;11.106;2024-01-15T05:38:33;29.33;;;12.68;;
46355;SDS011;32066;49.474;11.106;2024-01-15T05:41:02;30.88;;;13.18;;
46355;SDS011;32066;49.474;11.106;2024-01-15T05:43:30;27.73;;;13.20;;
46355;SDS011;32066;49.474;11.106;2024-01-15T05:45:59;31.58;;;13.73;;
46355;SDS011;32066;49.474;11.106;2024-01-15T05:48:28;27.42;;;11.93;;
46355;SDS011;32066;49.474;11.106;2024-01-15T05:50:56;31.23;;;14.20;;
46355;SDS011;32066;49.474;11.106;2024-01-15T05:53:28;33.05;;;13.02;;
46355;SDS011;32066;49.474;11.106;2024-01-15T05:55:56;28.15;;;12.77;;
46355;SDS011;32066;49.474;11.106;2024-01-15T05:58:26;29.85;;;13.60;;
46355;SDS011;32066;49.474;11.106;2024-01-15T06:00:55;27.58;;;13.10;;
46355;SDS011;32066;49.474;11.106;2024-01-15T06:03:23;28.70;;;13.82;;
46355;SDS011;32066;49.474;11.106;2024-01-15T06:05:52;28.20;;;12.90;;
46355;SDS011;32066;49.474;11.106;2024-01-15T06:08:20;27.50;;;12.82;;
46355;SDS011;32066;49.474;11.106;2024-01-15T06:10:55;27.60;;;11.98;;
46355;SDS011;32066;49.474;11.106;2024-01-15T06:13:24;25.92;;;11.90;;
46355;SDS011;32066;49.474;11.106;2024-01-15T06:15:53;31.45;;;13.40;;
46355;SDS011;32066;49.474;11.106;2024-01-15T06:18:21;30.58;;;12.10;;
46355;SDS011;32066;49.474;11.106;2024-01-15T06:20:50;27.77;;;12.68;;
46355;SDS011;32066;49.474;11.106;2024-01-15T06:23:18;28.83;;;12.13;;
46355;SDS011;32066;49.474;11.106;2024-01-15T06:25:47;25.35;;;11.95;;
46355;SDS011;32066;49.474;11.106;2024-01-15T06:28:18;28.75;;;12.38;;
46355;SDS011;32066;49.474;11.106;2024-01-15T06:30:47;25.70;;;12.05;;
46355;SDS011;32066;49.474;11.106;2024-01-15T06:33:16;26.58;;;11.60;;
46355;SDS011;32066;49.474;11.106;2024-01-15T06:35:45;27.00;;;11.25;;
46355;SDS011;32066;49.474;11.106;2024-01-15T06:38:14;25.08;;;11.48;;
46355;SDS011;32066;49.474;11.106;2024-01-15T06:40:43;29.52;;;12.65;;
46355;SDS011;32066;49.474;11.106;2024-01-15T06:43:13;25.40;;;12.30;;
46355;SDS011;32066;49.474;11.106;2024-01-15T06:45:44;25.67;;;11.68;;
46355;SDS011;32066;49.474;11.106;2024-01-15T06:48:13;25.85;;;11.88;;
46355;SDS011;32066;49.474;11.106;2024-01-15T06:50:42;25.35;;;11.63;;
46355;SDS011;32066;49.474;11.106;2024-01-15T06:53:11;27.17;;;12.48;;
46355;SDS011;32066;49.474;11.106;2024-01-15T06:55:39;27.25;;;11.75;;
46355;SDS011;32066;49.474;11.106;2024-01-15T06:58:08;25.33;;;11.38;;
46355;SDS011;32066;49.474;11.106;2024-01-15T07:00:37;25.73;;;11.30;;
46355;SDS011;32066;49.474;11.106;2024-01-15T07:03:08;23.85;;;11.35;;
46355;SDS011;32066;49.474;11.106;2024-01-15T07:05:36;27.20;;;11.93;;
46355;SDS011;32066;49.474;11.106;2024-01-15T07:08:05;25.33;;;11.50;;
46355;SDS011;32066;49.474;11.106;2024-01-15T07:10:34;22.33;;;11.57;;
46355;SDS011;32066;49.474;11.106;2024-01-15T07:13:03;26.75;;;11.35;;
46355;SDS011;32066;49.474;11.106;2024-01-15T07:15:32;26.33;;;11.35;;
46355;SDS011;32066;49.474;11.106;2024-01-15T07:18:01;23.33;;;10.82;;
46355;SDS011;32066;49.474;11.106;2024-01-15T07:20:32;23.48;;;10.50;;
46355;SDS011;32066;49.474;11.106;2024-01-15T07:23:01;23.30;;;11.52;;
46355;SDS011;32066;49.474;11.106;2024-01-15T07:25:30;21.30;;;10.25;;
46355;SDS011;32066;49.474;11.106;2024-01-15T07:27:58;23.75;;;11.27;;
46355;SDS011;32066;49.474;11.106;2024-01-15T07:30:29;22.83;;;10.63;;
46355;SDS011;32066;49.474;11.106;2024-01-15T07:32:57;22.42;;;10.45;;
46355;SDS011;32066;49.474;11.106;2024-01-15T07:35:26;26.70;;;10.93;;
46355;SDS011;32066;49.474;11.106;2024-01-15T07:37:57;23.02;;;11.27;;
46355;SDS011;32066;49.474;11.106;2024-01-15T07:40:26;24.13;;;10.32;;
46355;SDS011;32066;49.474;11.106;2024-01-15T07:42:54;26.80;;;10.82;;
46355;SDS011;32066;49.474;11.106;2024-01-15T07:45:23;22.77;;;11.73;;
46355;SDS011;32066;49.474;11.106;2024-01-15T07:47:52;24.92;;;12.75;;
46355;SDS011;32066;49.474;11.106;2024-01-15T07:50:20;23.88;;;10.80;;
46355;SDS011;32066;49.474;11.106;2024-01-15T07:52:50;22.73;;;10.95;;
46355;SDS011;32066;49.474;11.106;2024-01-15T07:55:21;24.65;;;11.32;;
46355;SDS011;32066;49.474;11.106;2024-01-15T07:57:50;21.33;;;10.38;;
46355;SDS011;32066;49.474;11.106;2024-01-15T08:00:24;21.27;;;9.93;;
46355;SDS011;32066;49.474;11.106;2024-01-15T08:02:52;22.08;;;10.65;;
46355;SDS011;32066;49.474;11.106;2024-01-15T08:05:21;24.20;;;12.02;;
46355;SDS011;32066;49.474;11.106;2024-01-15T08:07:50;24.05;;;11.07;;
46355;SDS011;32066;49.474;11.106;2024-01-15T08:10:18;26.17;;;11.98;;
46355;SDS011;32066;49.474;11.106;2024-01-15T08:12:50;26.02;;;11.70;;
46355;SDS011;32066;49.474;11.106;2024-01-15T08:15:18;25.23;;;12.45;;
46355;SDS011;32066;49.474;11.106;2024-01-15T08:17:47;22.65;;;11.45;;
46355;SDS011;32066;49.474;11.106;2024-01-15T08:20:16;29.38;;;12.52;;
46355;SDS011;32066;49.474;11.106;2024-01-15T08:22:44;26.63;;;11.63;;
46355;SDS011;32066;49.474;11.106;2024-01-15T08:25:13;26.05;;;11.95;;
46355;SDS011;32066;49.474;11.106;2024-01-15T08:27:44;25.58;;;12.00;;
46355;SDS011;32066;49.474;11.106;2024-01-15T08:30:13;26.75;;;12.40;;
46355;SDS011;32066;49.474;11.106;2024-01-15T08:32:44;26.45;;;11.57;;
46355;SDS011;32066;49.474;11.106;2024-01-15T08:35:12;25.65;;;11.80;;
46355;SDS011;32066;49.474;11.106;2024-01-15T08:37:41;28.48;;;11.68;;
46355;SDS011;32066;49.474;11.106;2024-01-15T08:40:10;27.95;;;12.40;;
46355;SDS011;32066;49.474;11.106;2024-01-15T08:42:39;29.65;;;12.30;;
46355;SDS011;32066;49.474;11.106;2024-01-15T08:45:10;23.70;;;11.85;;
46355;SDS011;32066;49.474;11.106;2024-01-15T08:47:39;27.10;;;11.60;;
46355;SDS011;32066;49.474;11.106;2024-01-15T08:50:08;25.02;;;11.48;;
46355;SDS011;32066;49.474;11.106;2024-01-15T08:52:37;23.98;;;11.13;;
46355;SDS011;32066;49.474;11.106;2024-01-15T08:55:06;26.50;;;11.75;;
46355;SDS011;32066;49.474;11.106;2024-01-15T08:57:35;24.15;;;11.20;;
46355;SDS011;32066;49.474;11.106;2024-01-15T09:00:04;22.85;;;10.55;;
46355;SDS011;32066;49.474;11.106;2024-01-15T09:02:37;24.08;;;11.23;;
46355;SDS011;32066;49.474;11.106;2024-01-15T09:05:05;23.85;;;11.60;;
46355;SDS011;32066;49.474;11.106;2024-01-15T09:07:34;28.05;;;11.80;;
46355;SDS011;32066;49.474;11.106;2024-01-15T09:10:04;24.40;;;12.07;;
46355;SDS011;32066;49.474;11.106;2024-01-15T09:12:33;23.88;;;11.00;;
46355;SDS011;32066;49.474;11.106;2024-01-15T09:15:01;23.80;;;11.32;;
46355;SDS011;32066;49.474;11.106;2024-01-15T09:17:31;26.20;;;11.25;;
46355;SDS011;32066;49.474;11.106;2024-01-15T09:20:03;23.08;;;10.50;;
46355;SDS011;32066;49.474;11.106;2024-01-15T09:22:32;22.80;;;11.52;;
46355;SDS011;32066;49.474;11.106;2024-01-15T09:25:01;23.27;;;10.48;;
46355;SDS011;32066;49.474;11.106;2024-01-15T09:27:30;25.05;;;11.98;;
46355;SDS011;32066;49.474;11.106;2024-01-15T09:29:59;25.40;;;11.65;;
46355;SDS011;32066;49.474;11.106;2024-01-15T09:32:28;24.60;;;11.85;;
46355;SDS011;32066;49.474;11.106;2024-01-15T09:34:58;22.52;;;11.10;;
46355;SDS011;32066;49.474;11.106;2024-01-15T09:37:29;27.42;;;12.15;;
46355;SDS011;32066;49.474;11.106;2024-01-15T09:39:58;25.08;;;11.50;;
46355;SDS011;32066;49.474;11.106;2024-01-15T09:42:26;23.05;;;10.80;;
46355;SDS011;32066;49.474;11.106;2024-01-15T09:44:56;25.23;;;11.13;;
46355;SDS011;32066;49.474;11.106;2024-01-15T09:47:25;22.05;;;11.05;;
46355;SDS011;32066;49.474;11.106;2024-01-15T09:49:53;27.48;;;12.27;;
46355;SDS011;32066;49.474;11.106;2024-01-15T09:52:23;22.35;;;11.25;;
46355;SDS011;32066;49.474;11.106;2024-01-15T09:54:55;24.15;;;11.50;;
46355;SDS011;32066;49.474;11.106;2024-01-15T09:57:26;26.13;;;10.05;;
46355;SDS011;32066;49.474;11.106;2024-01-15T09:59:55;30.83;;;11.85;;
46355;SDS011;32066;49.474;11.106;2024-01-15T10:02:29;24.40;;;11.98;;
46355;SDS011;32066;49.474;11.106;2024-01-15T10:04:59;23.15;;;10.75;;
46355;SDS011;32066;49.474;11.106;2024-01-15T10:07:27;22.20;;;10.90;;
46355;SDS011;32066;49.474;11.106;2024-01-15T10:10:00;21.02;;;10.45;;
46355;SDS011;32066;49.474;11.106;2024-01-15T10:12:29;22.20;;;10.50;;
46355;SDS011;32066;49.474;11.106;2024-01-15T10:14:58;24.10;;;11.60;;
46355;SDS011;32066;49.474;11.106;2024-01-15T10:17:27;27.67;;;12.02;;
46355;SDS011;32066;49.474;11.106;2024-01-15T10:19:56;23.48;;;11.15;;
46355;SDS011;32066;49.474;11.106;2024-01-15T10:22:25;24.58;;;11.10;;
46355;SDS011;32066;49.474;11.106;2024-01-15T10:24:54;25.02;;;12.82;;
46355;SDS011;32066;49.474;11.106;2024-01-15T10:27:25;23.88;;;12.50;;
46355;SDS011;32066;49.474;11.106;2024-01-15T10:29:54;26.35;;;11.48;;
46355;SDS011;32066;49.474;11.106;2024-01-15T10:32:28;23.10;;;11.38;;
46355;SDS011;32066;49.474;11.106;2024-01-15T10:34:56;22.80;;;12.40;;
46355;SDS011;32066;49.474;11.106;2024-01-15T10:37:25;23.02;;;11.82;;
46355;SDS011;32066;49.474;11.106;2024-01-15T10:39:54;24.80;;;11.95;;
46355;SDS011;32066;49.474;11.106;2024-01-15T10:42:25;23.38;;;11.07;;
46355;SDS011;32066;49.474;11.106;2024-01-15T10:44:54;23.73;;;10.98;;
46355;SDS011;32066;49.474;11.106;2024-01-15T10:47:22;25.75;;;11.70;;
46355;SDS011;32066;49.474;11.106;2024-01-15T10:49:51;23.60;;;10.63;;
46355;SDS011;32066;49.474;11.106;2024-01-15T10:52:20;22.52;;;11.30;;
46355;SDS011;32066;49.474;11.106;2024-01-15T10:54:50;21.77;;;11.33;;
46355;SDS011;32066;49.474;11.106;2024-01-15T10:57:20;22.52;;;10.93;;
46355;SDS011;32066;49.474;11.106;2024-01-15T10:59:53;20.40;;;10.45;;
46355;SDS011;32066;49.474;11.106;2024-01-15T11:02:23;22.52;;;11.10;;
46355;SDS011;32066;49.474;11.106;2024-01-15T11:04:53;22.30;;;11.27;;
46355;SDS011;32066;49.474;11.106;2024-01-15T11:07:22;21.08;;;11.25;;
46355;SDS011;32066;49.474;11.106;2024-01-15T11:09:52;20.15;;;10.63;;
46355;SDS011;32066;49.474;11.106;2024-01-15T11:12:20;23.60;;;10.68;;
46355;SDS011;32066;49.474;11.106;2024-01-15T11:14:49;22.48;;;10.95;;
46355;SDS011;32066;49.474;11.106;2024-01-15T11:17:30;22.98;;;10.40;;
46355;SDS011;32066;49.474;11.106;2024-01-15T11:20:30;21.00;;;10.55;;
46355;SDS011;32066;49.474;11.106;2024-01-15T11:22:59;19.60;;;10.20;;
46355;SDS011;32066;49.474;11.106;2024-01-15T11:25:34;23.20;;;11.77;;
46355;SDS011;32066;49.474;11.106;2024-01-15T11:28:04;19.80;;;10.25;;
46355;SDS011;32066;49.474;11.106;2024-01-15T11:30:36;20.17;;;10.95;;
46355;SDS011;32066;49.474;11.106;2024-01-15T11:33:04;21.08;;;10.63;;
46355;SDS011;32066;49.474;11.106;2024-01-15T11:35:48;22.70;;;11.20;;
46355;SDS011;32066;49.474;11.106;2024-01-15T11:38:26;20.25;;;10.65;;
46355;SDS011;32066;49.474;11.106;2024-01-15T11:40:56;22.33;;;10.38;;
46355;SDS011;32066;49.474;11.106;2024-01-15T11:43:28;21.27;;;10.18;;
46355;SDS011;32066;49.474;11.106;2024-01-15T11:46:00;21.30;;;11.00;;
46355;SDS011;32066;49.474;11.106;2024-01-15T11:48:32;20.45;;;10.57;;
46355;SDS011;32066;49.474;11.106;2024-01-15T11:51:11;20.35;;;10.27;;
46355;SDS011;32066;49.474;11.106;2024-01-15T11:53:43;22.45;;;10.90;;
46355;SDS011;32066;49.474;11.106;2024-01-15T11:56:15;20.95;;;10.68;;
46355;SDS011;32066;49.474;11.106;2024-01-15T11:58:44;28.40;;;11.80;;
46355;SDS011;32066;49.474;11.106;2024-01-15T12:01:18;21.92;;;10.68;;
46355;SDS011;32066;49.474;11.106;2024-01-15T12:03:46;21.65;;;10.60;;
46355;SDS011;32066;49.474;11.106;2024-01-15T12:06:15;23.70;;;11.27;;
46355;SDS011;32066;49.474;11.106;2024-01-15T12:08:44;21.17;;;10.63;;
46355;SDS011;32066;49.474;11.106;2024-01-15T12:11:13;21.23;;;10.88;;
46355;SDS011;32066;49.474;11.106;2024-01-15T12:13:43;21.73;;;10.73;;
46355;SDS011;32066;49.474;11.106;2024-01-15T12:16:12;24.83;;;10.48;;
46355;SDS011;32066;49.474;11.106;2024-01-15T12:18:43;20.33;;;10.05;;
46355;SDS011;32066;49.474;11.106;2024-01-15T12:21:13;23.17;;;10.23;;
46355;SDS011;32066;49.474;11.106;2024-01-15T12:23:45;21.98;;;11.23;;
46355;SDS011;32066;49.474;11.106;2024-01-15T12:26:14;20.08;;;10.73;;
46355;SDS011;32066;49.474;11.106;2024-01-15T12:28:43;21.52;;;10.70;;
46355;SDS011;32066;49.474;11.106;2024-01-15T12:31:11;20.00;;;10.30;;
46355;SDS011;32066;49.474;11.106;2024-01-15T12:33:43;16.38;;;9.32;;
46355;SDS011;32066;49.474;11.106;2024-01-15T12:36:13;18.35;;;9.70;;
46355;SDS011;32066;49.474;11.106;2024-01-15T12:38:41;18.60;;;9.55;;
46355;SDS011;32066;49.474;11.106;2024-01-15T12:41:11;19.63;;;10.43;;
46355;SDS011;32066;49.474;11.106;2024-01-15T12:43:40;19.05;;;9.27;;
46355;SDS011;32066;49.474;11.106;2024-01-15T12:46:09;17.02;;;9.75;;
46355;SDS011;32066;49.474;11.106;2024-01-15T12:48:40;19.83;;;9.52;;
46355;SDS011;32066;49.474;11.106;2024-01-15T12:51:12;16.65;;;9.23;;
46355;SDS011;32066;49.474;11.106;2024-01-15T12:53:40;16.52;;;9.23;;
46355;SDS011;32066;49.474;11.106;2024-01-15T12:56:09;18.30;;;9.45;;
46355;SDS011;32066;49.474;11.106;2024-01-15T12:58:38;17.23;;;9.15;;
46355;SDS011;32066;49.474;11.106;2024-01-15T13:01:06;21.05;;;9.98;;
46355;SDS011;32066;49.474;11.106;2024-01-15T13:03:35;17.08;;;9.48;;
46355;SDS011;32066;49.474;11.106;2024-01-15T13:06:07;15.20;;;8.55;;
46355;SDS011;32066;49.474;11.106;2024-01-15T13:08:35;17.02;;;9.35;;
46355;SDS011;32066;49.474;11.106;2024-01-15T13:11:04;16.25;;;9.23;;
46355;SDS011;32066;49.474;11.106;2024-01-15T13:13:33;18.38;;;9.85;;
46355;SDS011;32066;49.474;11.106;2024-01-15T13:16:01;15.93;;;9.50;;
46355;SDS011;32066;49.474;11.106;2024-01-15T13:18:30;20.52;;;9.88;;
46355;SDS011;32066;49.474;11.106;2024-01-15T13:20:59;16.67;;;8.93;;
46355;SDS011;32066;49.474;11.106;2024-01-15T13:23:30;19.50;;;9.27;;
46355;SDS011;32066;49.474;11.106;2024-01-15T13:25:59;21.23;;;10.07;;
46355;SDS011;32066;49.474;11.106;2024-01-15T13:28:28;18.42;;;9.23;;
46355;SDS011;32066;49.474;11.106;2024-01-15T13:30:56;16.25;;;9.30;;
46355;SDS011;32066;49.474;11.106;2024-01-15T13:33:25;18.20;;;8.73;;
46355;SDS011;32066;49.474;11.106;2024-01-15T13:35:53;19.35;;;9.32;;
46355;SDS011;32066;49.474;11.106;2024-01-15T13:38:22;18.02;;;8.90;;
46355;SDS011;32066;49.474;11.106;2024-01-15T13:40:54;18.88;;;8.93;;
46355;SDS011;32066;49.474;11.106;2024-01-15T13:43:23;15.48;;;8.50;;
46355;SDS011;32066;49.474;11.106;2024-01-15T13:45:52;16.23;;;8.43;;
46355;SDS011;32066;49.474;11.106;2024-01-15T13:48:20;16.00;;;8.82;;
46355;SDS011;32066;49.474;11.106;2024-01-15T13:50:49;15.18;;;8.93;;
46355;SDS011;32066;49.474;11.106;2024-01-15T13:53:18;16.27;;;8.32;;
46355;SDS011;32066;49.474;11.106;2024-01-15T13:55:46;16.42;;;8.38;;
46355;SDS011;32066;49.474;11.106;2024-01-15T13:58:18;13.85;;;7.75;;
46355;SDS011;32066;49.474;11.106;2024-01-15T14:00:46;14.82;;;8.32;;
46355;SDS011;32066;49.474;11.106;2024-01-15T14:03:16;14.02;;;7.65;;
46355;SDS011;32066;49.474;11.106;2024-01-15T14:05:44;16.33;;;8.00;;
46355;SDS011;32066;49.474;11.106;2024-01-15T14:08:13;13.00;;;7.38;;
46355;SDS011;32066;49.474;11.106;2024-01-15T14:10:42;15.82;;;7.30;;
46355;SDS011;32066;49.474;11.106;2024-01-15T14:13:10;14.85;;;7.38;;
46355;SDS011;32066;49.474;11.106;2024-01-15T14:15:41;16.02;;;8.07;;
46355;SDS011;32066;49.474;11.106;2024-01-15T14:18:10;15.15;;;8.40;;
46355;SDS011;32066;49.474;11.106;2024-01-15T14:20:39;13.30;;;7.57;;
46355;SDS011;32066;49.474;11.106;2024-01-15T14:23:07;13.98;;;7.53;;